Time;durP1;ratioP1;P1;durP2;ratioP2;P2;SDS_P1;SDS_P2;PMS_P1;PMS_P2;Temp;Humidity;BMP_temperature;BMP_pressure;BME280_temperature;BME280_humidity;BME280_pressure;Samples;Min_cycle;Max_cycle;Signal;HPM_P1;HPM_P2
2022/06/18 00:00:14;;;;;;;5.80;2.90;;;;;;;15.73;94.64;156474.28;4914160;29;20043;-83
2022/06/18 00:02:44;;;;;;;3.95;3.15;;;;;;;15.66;95.36;156456.22;4929748;28;20039;-83
2022/06/18 00:05:18;;;;;;;7.88;3.10;;;;;;;15.50;95.91;156416.34;4934091;28;20067;-82
2022/06/18 00:07:54;;;;;;;4.78;3.22;;;;;;;15.69;96.67;156463.94;4933929;28;20150;-81
2022/06/18 00:10:24;;;;;;;3.72;3.28;;;;;;;15.41;96.25;156393.19;4926724;28;20315;-81
2022/06/18 00:15:41;;;;;;;5.93;3.10;;;;;;;15.14;97.85;156326.28;4929395;29;20490;-82
2022/06/18 00:18:12;;;;;;;5.40;3.03;;;;;;;15.12;98.42;156321.09;4938813;28;20116;-79
2022/06/18 00:20:42;;;;;;;9.07;3.67;;;;;;;14.99;99.23;156288.97;4938500;28;20094;-80
2022/06/18 00:23:14;;;;;;;10.32;3.75;;;;;;;14.82;100.00;156245.19;4921040;28;20047;-84
2022/06/18 00:25:48;;;;;;;4.28;3.40;;;;;;;14.83;100.00;156246.50;4949322;28;20118;-81
2022/06/18 00:28:21;;;;;;;7.57;3.60;;;;;;;14.60;100.00;156191.19;4945899;28;20034;-82
2022/06/18 00:30:50;;;;;;;9.35;3.30;;;;;;;14.56;100.00;156179.53;4921193;29;20051;-82
2022/06/18 00:33:21;;;;;;;5.22;3.10;;;;;;;14.53;99.61;156171.84;4929497;28;20072;-82
2022/06/18 00:35:49;;;;;;;6.03;3.42;;;;;;;14.55;100.00;156177.00;4949333;28;20082;-81
2022/06/18 00:38:24;;;;;;;5.57;3.60;;;;;;;14.56;100.00;156179.53;4938160;28;20506;-83
2022/06/18 00:40:51;;;;;;;6.20;3.60;;;;;;;14.49;100.00;156161.56;4955785;28;20075;-79
2022/06/18 00:43:22;;;;;;;5.43;2.95;;;;;;;14.52;100.00;156169.25;4949833;28;20038;-80
2022/06/18 00:45:52;;;;;;;6.22;3.40;;;;;;;14.42;100.00;156144.84;4937285;29;20541;-79
2022/06/18 00:48:33;;;;;;;3.67;3.28;;;;;;;14.38;100.00;156135.84;4947837;28;20043;-79
2022/06/18 00:51:21;;;;;;;4.82;3.00;;;;;;;14.30;100.00;156114.00;4930592;29;20106;-78
2022/06/18 00:53:55;;;;;;;4.68;3.45;;;;;;;14.28;100.00;156108.81;4928315;29;20066;-80
2022/06/18 00:56:29;;;;;;;6.15;3.20;;;;;;;14.26;100.00;156105.00;4932199;28;20047;-77
2022/06/18 00:59:00;;;;;;;6.88;3.70;;;;;;;14.25;100.00;156101.13;4941425;28;20130;-82
2022/06/18 01:01:33;;;;;;;5.63;3.40;;;;;;;14.24;100.00;156098.53;4916991;28;20043;-78
2022/06/18 01:03:59;;;;;;;4.90;3.53;;;;;;;14.27;100.00;156106.28;4950799;28;20391;-80
2022/06/18 01:06:30;;;;;;;7.72;3.28;;;;;;;14.21;100.00;156093.41;4920766;28;20050;-79
2022/06/18 01:09:12;;;;;;;3.55;3.17;;;;;;;14.24;100.00;156098.53;4938205;28;20583;-80
2022/06/18 01:11:40;;;;;;;6.43;3.47;;;;;;;14.20;100.00;156089.53;4923848;28;20037;-80
2022/06/18 01:14:10;;;;;;;5.05;3.33;;;;;;;14.14;100.00;156075.38;4925455;28;20039;-78
2022/06/18 01:16:37;;;;;;;6.38;3.60;;;;;;;14.17;100.00;156081.84;4948026;29;20074;-79
2022/06/18 01:19:11;;;;;;;4.07;3.67;;;;;;;14.13;100.00;156071.56;4937848;29;20082;-78
2022/06/18 01:21:49;;;;;;;5.60;3.47;;;;;;;14.11;100.00;156067.69;4927941;28;20071;-80
2022/06/18 01:24:17;;;;;;;5.28;3.35;;;;;;;14.04;100.00;156049.69;4938461;28;20031;-80
2022/06/18 01:26:46;;;;;;;6.00;4.00;;;;;;;13.95;100.00;156027.81;4964499;28;20043;-82
2022/06/18 01:29:14;;;;;;;6.32;3.63;;;;;;;13.85;100.00;156000.84;4934741;28;20043;-80
2022/06/18 01:31:39;;;;;;;5.03;3.17;;;;;;;13.85;100.00;156000.84;4929897;29;20043;-79
2022/06/18 01:34:06;;;;;;;8.55;3.72;;;;;;;13.85;100.00;156000.84;4925993;29;20047;-79
2022/06/18 01:36:36;;;;;;;5.55;3.88;;;;;;;13.74;100.00;155975.13;4932473;28;20031;-77
2022/06/18 01:39:06;;;;;;;3.97;3.50;;;;;;;13.66;100.00;155954.56;4936187;29;20043;-80
2022/06/18 01:41:50;;;;;;;5.40;3.33;;;;;;;13.59;100.00;155936.56;4961074;28;20109;-80
2022/06/18 01:44:34;;;;;;;5.07;3.75;;;;;;;13.52;100.00;155919.84;4913928;28;20445;-80
2022/06/18 01:47:07;;;;;;;4.00;3.30;;;;;;;13.51;100.00;155916.03;4928511;29;20046;-76
2022/06/18 01:49:42;;;;;;;8.15;3.72;;;;;;;13.48;100.00;155908.28;4930113;29;20100;-78
2022/06/18 01:52:11;;;;;;;5.38;3.60;;;;;;;13.43;100.00;155898.00;4934984;28;20035;-82
2022/06/18 01:54:44;;;;;;;4.25;3.58;;;;;;;13.40;100.00;155890.28;4935641;28;20137;-82
2022/06/18 01:57:17;;;;;;;8.35;3.88;;;;;;;13.40;100.00;155889.00;4959378;28;20063;-79
2022/06/18 01:59:51;;;;;;;4.30;3.90;;;;;;;13.39;100.00;155886.41;4931379;29;20075;-83
2022/06/18 02:02:22;;;;;;;4.25;3.83;;;;;;;13.43;100.00;155896.75;4925611;28;20046;-80
2022/06/18 02:04:47;;;;;;;6.40;3.80;;;;;;;13.47;100.00;155905.69;4943324;29;20047;-80
2022/06/18 02:07:15;;;;;;;5.55;3.35;;;;;;;13.37;100.00;155881.28;4917154;28;20562;-77
2022/06/18 02:09:48;;;;;;;3.92;3.50;;;;;;;13.31;100.00;155865.88;4934351;28;20039;-77
2022/06/18 02:12:18;;;;;;;4.88;3.90;;;;;;;13.25;100.00;155851.69;4957964;28;20173;-79
2022/06/18 02:14:49;;;;;;;6.53;3.45;;;;;;;13.21;100.00;155841.41;4945058;28;20102;-77
2022/06/18 02:17:18;;;;;;;6.82;3.53;;;;;;;13.12;100.00;155818.28;4920436;28;20054;-81
2022/06/18 02:19:55;;;;;;;9.50;3.85;;;;;;;13.18;100.00;155833.69;4943428;29;20494;-80
2022/06/18 02:22:47;;;;;;;4.85;3.88;;;;;;;13.20;100.00;155838.81;4936765;28;20035;-78
2022/06/18 02:25:15;;;;;;;7.00;4.07;;;;;;;13.16;100.00;155829.81;4936860;28;20091;-79
2022/06/18 02:27:42;;;;;;;5.25;3.75;;;;;;;13.16;100.00;155828.56;4943733;28;20042;-81
2022/06/18 02:30:20;;;;;;;6.10;3.97;;;;;;;13.16;100.00;155828.56;4915878;28;20039;-81
2022/06/18 02:32:55;;;;;;;6.47;3.45;;;;;;;13.16;100.00;155828.56;4938761;29;20039;-79
2022/06/18 02:35:21;;;;;;;4.13;3.72;;;;;;;13.17;100.00;155831.16;4915863;28;20521;-82
2022/06/18 02:37:47;;;;;;;5.60;3.92;;;;;;;13.18;100.00;155834.97;4931290;29;20044;-82
2022/06/18 02:40:22;;;;;;;5.88;3.72;;;;;;;13.18;100.00;155834.97;4939654;28;20043;-81
2022/06/18 02:42:49;;;;;;;8.15;4.28;;;;;;;13.19;100.00;155837.56;4938449;29;20042;-79
2022/06/18 02:45:17;;;;;;;7.47;3.80;;;;;;;13.20;100.00;155840.16;4934706;28;20035;-80
2022/06/18 02:47:43;;;;;;;5.93;3.83;;;;;;;13.18;100.00;155834.97;4943105;28;20047;-79
2022/06/18 02:50:12;;;;;;;4.43;3.70;;;;;;;13.17;100.00;155832.41;4946729;28;21483;-81
2022/06/18 02:52:42;;;;;;;4.65;4.05;;;;;;;13.19;100.00;155836.28;4931717;29;20117;-81
2022/06/18 02:55:12;;;;;;;6.85;3.97;;;;;;;13.20;100.00;155838.81;4940028;28;20039;-78
2022/06/18 02:57:38;;;;;;;5.43;3.78;;;;;;;13.20;100.00;155840.16;4934531;28;20442;-80
2022/06/18 03:00:08;;;;;;;7.75;3.83;;;;;;;13.25;100.00;155851.69;4929462;29;20183;-81
2022/06/18 03:02:34;;;;;;;6.05;4.00;;;;;;;13.31;100.00;155865.88;4940304;28;20039;-80
2022/06/18 03:05:00;;;;;;;4.78;4.07;;;;;;;13.33;100.00;155871.00;4916985;29;20465;-81
2022/06/18 03:07:26;;;;;;;3.88;3.58;;;;;;;13.40;100.00;155889.00;4928998;28;20043;-80
2022/06/18 03:12:36;;;;;;;4.18;3.60;;;;;;;13.47;100.00;155905.69;4914135;29;20035;-80
2022/06/18 03:15:01;;;;;;;6.72;3.90;;;;;;;13.59;100.00;155937.84;4931131;29;20035;-80
2022/06/18 03:17:27;;;;;;;7.95;4.10;;;;;;;13.61;100.00;155941.69;4951872;28;20038;-80
2022/06/18 03:19:59;;;;;;;5.10;3.47;;;;;;;13.62;100.00;155945.56;4922206;29;20027;-80
2022/06/18 03:22:25;;;;;;;5.57;4.00;;;;;;;13.59;100.00;155937.84;4933793;28;20050;-80
2022/06/18 03:24:52;;;;;;;4.20;3.47;;;;;;;13.73;100.00;155971.25;4929685;29;20845;-79
2022/06/18 03:27:19;;;;;;;5.55;3.58;;;;;;;13.81;100.00;155993.13;4945104;28;20048;-79
2022/06/18 03:29:52;;;;;;;3.83;3.05;;;;;;;13.92;100.00;156020.13;4927457;29;20038;-80
2022/06/18 03:32:18;;;;;;;5.43;3.63;;;;;;;13.95;100.00;156026.53;4922794;28;20038;-81
2022/06/18 03:34:44;;;;;;;6.53;3.75;;;;;;;13.94;100.00;156024.00;4925945;29;20039;-81
2022/06/18 03:37:10;;;;;;;4.10;3.25;;;;;;;13.95;100.00;156027.81;4948234;28;20095;-81
2022/06/18 03:39:36;;;;;;;5.57;3.97;;;;;;;13.96;100.00;156029.13;4925774;28;20031;-83
2022/06/18 03:42:03;;;;;;;7.13;3.45;;;;;;;13.98;100.00;156035.56;4929275;28;20165;-78
2022/06/18 03:44:29;;;;;;;6.20;3.55;;;;;;;14.06;100.00;156053.56;4941414;28;20027;-80
2022/06/18 03:46:59;;;;;;;3.30;3.00;;;;;;;14.07;100.00;156056.09;4932036;29;20053;-79
2022/06/18 03:49:32;;;;;;;4.72;3.50;;;;;;;14.04;100.00;156049.69;4931040;29;20035;-80
2022/06/18 03:52:03;;;;;;;5.03;3.30;;;;;;;14.02;100.00;156044.56;4937116;29;20043;-79
2022/06/18 03:54:29;;;;;;;12.18;3.47;;;;;;;14.08;100.00;156059.97;4945765;28;20038;-80
2022/06/18 03:56:55;;;;;;;7.97;3.10;;;;;;;14.06;100.00;156054.81;4948970;28;20042;-79
2022/06/18 03:59:22;;;;;;;6.82;3.60;;;;;;;14.14;100.00;156074.09;4939895;28;20043;-81
2022/06/18 04:01:48;;;;;;;5.45;3.33;;;;;;;14.21;100.00;156092.13;4927123;29;20044;-81
2022/06/18 04:04:15;;;;;;;8.15;3.30;;;;;;;14.24;100.00;156098.53;4934353;28;20046;-80
2022/06/18 04:06:45;;;;;;;5.78;3.42;;;;;;;14.30;100.00;156114.00;4934043;29;20418;-80
2022/06/18 04:09:29;;;;;;;4.20;2.72;;;;;;;14.39;100.00;156138.41;4931493;28;20757;-80
2022/06/18 04:11:55;;;;;;;4.68;3.30;;;;;;;14.54;100.00;156174.41;4954108;28;20031;-81
2022/06/18 04:14:22;;;;;;;4.07;2.90;;;;;;;14.70;100.00;156215.63;4941383;29;20097;-82
2022/06/18 04:17:15;;;;;;;5.47;2.83;;;;;;;14.90;100.00;156264.47;4914700;29;20047;-80
2022/06/18 04:19:42;;;;;;;3.13;2.75;;;;;;;15.09;100.00;156312.13;4929589;29;20039;-80
2022/06/18 04:22:08;;;;;;;3.85;2.90;;;;;;;15.22;100.00;156344.25;4935322;28;20845;-81
2022/06/18 04:24:48;;;;;;;4.22;2.83;;;;;;;15.32;100.00;156370.00;4929932;28;20517;-81
2022/06/18 04:27:14;;;;;;;3.55;2.70;;;;;;;15.44;100.00;156400.88;4950509;28;20330;-80
2022/06/18 04:29:40;;;;;;;3.63;2.60;;;;;;;15.48;100.00;156409.88;4913644;28;20441;-80
2022/06/18 04:32:06;;;;;;;6.32;2.65;;;;;;;15.57;100.00;156434.31;4940198;29;20031;-79
2022/06/18 04:34:32;;;;;;;6.15;3.45;;;;;;;15.71;100.00;156467.81;4941262;28;20031;-80
2022/06/18 04:37:19;;;;;;;5.57;2.78;;;;;;;15.81;100.00;156493.59;4920494;29;20098;-80
2022/06/18 04:40:04;;;;;;;4.03;2.60;;;;;;;16.05;100.00;156552.78;4954477;28;20038;-79
2022/06/18 04:42:50;;;;;;;3.17;2.60;;;;;;;16.13;100.00;156573.41;4948080;28;20049;-78
2022/06/18 04:45:17;;;;;;;3.35;2.60;;;;;;;16.18;100.00;156586.28;4934554;29;20047;-80
2022/06/18 04:47:51;;;;;;;6.30;2.72;;;;;;;16.34;100.00;156626.16;4931418;28;20039;-78
2022/06/18 04:50:19;;;;;;;3.13;2.40;;;;;;;16.52;100.00;156672.53;4960685;28;20103;-80
2022/06/18 04:52:46;;;;;;;4.05;2.50;;;;;;;16.59;99.54;156689.25;4931869;29;20098;-81
2022/06/18 04:55:11;;;;;;;3.60;2.50;;;;;;;16.55;100.00;156678.94;4941751;28;20500;-80
2022/06/18 04:57:37;;;;;;;4.82;2.30;;;;;;;16.61;100.00;156694.41;4966725;28;20042;-83
2022/06/18 05:00:07;;;;;;;4.80;2.45;;;;;;;16.58;100.00;156685.41;4934979;29;20458;-79
2022/06/18 05:02:47;;;;;;;7.78;2.53;;;;;;;16.61;100.00;156694.41;4933924;29;20040;-77
2022/06/18 05:05:29;;;;;;;5.30;2.30;;;;;;;16.79;100.00;156739.47;4949165;28;20047;-80
2022/06/18 05:08:14;;;;;;;4.57;2.40;;;;;;;16.73;100.00;156725.31;4931552;28;20573;-81
2022/06/18 05:11:07;;;;;;;3.47;2.33;;;;;;;16.75;100.00;156729.19;4946441;28;20575;-78
2022/06/18 05:13:55;;;;;;;3.72;2.50;;;;;;;16.80;100.00;156740.75;4945838;28;20047;-78
2022/06/18 05:16:25;;;;;;;4.28;2.47;;;;;;;16.76;100.00;156730.47;4934521;29;20045;-81
2022/06/18 05:18:50;;;;;;;4.78;2.65;;;;;;;16.84;100.00;156751.09;4925467;29;20042;-82
2022/06/18 05:21:16;;;;;;;2.88;2.42;;;;;;;17.00;100.00;156791.06;4906590;28;20506;-81
2022/06/18 05:23:42;;;;;;;4.18;2.83;;;;;;;17.15;100.00;156828.41;4954778;28;20036;-79
2022/06/18 05:26:13;;;;;;;5.43;2.15;;;;;;;17.41;100.00;156894.09;4949464;28;20469;-80
2022/06/18 05:28:39;;;;;;;2.50;2.05;;;;;;;17.52;100.00;156923.72;4944710;28;20037;-80
2022/06/18 05:31:06;;;;;;;5.93;2.30;;;;;;;17.67;100.00;156961.09;4934337;29;20125;-80
2022/06/18 05:33:33;;;;;;;3.28;2.15;;;;;;;17.81;100.00;156994.59;4933967;29;20031;-82
2022/06/18 05:35:59;;;;;;;4.97;2.47;;;;;;;17.89;100.00;157015.25;4914037;29;20041;-81
2022/06/18 05:38:26;;;;;;;4.13;2.20;;;;;;;18.19;99.58;157091.28;4950915;28;20403;-81
2022/06/18 05:40:52;;;;;;;6.50;2.40;;;;;;;18.28;98.81;157114.47;4947430;28;20528;-79
2022/06/18 05:43:18;;;;;;;5.93;2.30;;;;;;;18.38;99.24;157138.94;4933527;28;20070;-79
2022/06/18 05:45:44;;;;;;;4.55;2.40;;;;;;;18.62;98.84;157199.53;4941261;29;20039;-82
2022/06/18 05:48:11;;;;;;;4.18;2.35;;;;;;;18.80;99.70;157244.75;4903469;29;20035;-79
2022/06/18 05:50:36;;;;;;;3.75;2.50;;;;;;;18.91;100.00;157271.81;4929472;29;20509;-80
2022/06/18 05:53:02;;;;;;;3.55;2.30;;;;;;;19.11;100.00;157320.81;4925478;29;20142;-82
2022/06/18 05:55:46;;;;;;;5.75;2.30;;;;;;;19.32;99.55;157373.66;4963649;28;20043;-82
2022/06/18 05:58:50;;;;;;;5.03;2.60;;;;;;;19.70;100.00;157469.09;4888595;29;20036;-80
2022/06/18 06:01:21;;;;;;;2.30;1.90;;;;;;;19.68;100.00;157463.94;4909858;29;20155;-83
2022/06/18 06:03:46;;;;;;;3.15;2.20;;;;;;;19.74;100.00;157479.47;4927472;28;20137;-81
2022/06/18 06:06:12;;;;;;;2.78;2.40;;;;;;;19.73;100.00;157478.19;4941849;29;20070;-80
2022/06/18 06:08:41;;;;;;;3.75;2.30;;;;;;;19.72;100.00;157475.63;4949578;28;20043;-80
2022/06/18 06:13:52;;;;;;;6.72;2.28;;;;;;;19.87;100.00;157511.72;4968215;28;20041;-82
2022/06/18 06:16:20;;;;;;;2.85;2.20;;;;;;;20.06;100.00;157559.44;4931257;29;20035;-82
2022/06/18 06:18:46;;;;;;;3.85;2.03;;;;;;;20.16;100.00;157586.56;4927164;29;20445;-80
2022/06/18 06:21:12;;;;;;;4.45;2.40;;;;;;;20.27;99.10;157612.34;4935446;28;20203;-80
2022/06/18 06:23:37;;;;;;;9.27;2.35;;;;;;;20.59;94.99;157693.66;4923361;28;20031;-81
2022/06/18 06:26:13;;;;;;;4.53;2.25;;;;;;;20.65;97.48;157707.91;4919731;29;20031;-80
2022/06/18 06:28:40;;;;;;;6.35;2.50;;;;;;;20.74;95.24;157732.44;4921835;28;20528;-80
2022/06/18 06:31:06;;;;;;;5.45;2.15;;;;;;;20.75;94.23;157733.69;4925089;29;20043;-80
2022/06/18 06:33:31;;;;;;;4.30;2.10;;;;;;;20.88;93.46;157765.97;4924359;29;20058;-82
2022/06/18 06:35:57;;;;;;;6.00;2.38;;;;;;;21.00;92.32;157798.25;4932684;29;20142;-80
2022/06/18 06:38:23;;;;;;;8.13;2.65;;;;;;;21.11;90.60;157825.31;4915939;28;20050;-81
2022/06/18 06:40:48;;;;;;;4.40;2.20;;;;;;;21.20;89.98;157847.28;4946866;28;20121;-83
2022/06/18 06:43:15;;;;;;;4.78;2.40;;;;;;;21.41;89.13;157900.22;4925899;28;20066;-82
2022/06/18 06:45:43;;;;;;;3.05;2.53;;;;;;;21.45;90.78;157910.56;4938592;29;20081;-80
2022/06/18 06:48:09;;;;;;;3.95;2.10;;;;;;;21.56;90.25;157938.97;4945880;28;20059;-82
2022/06/18 06:50:35;;;;;;;5.47;2.47;;;;;;;21.63;91.75;157955.78;4931382;29;20070;-81
2022/06/18 06:53:00;;;;;;;9.60;2.50;;;;;;;21.80;90.35;157997.13;4945542;29;20551;-82
2022/06/18 06:58:19;;;;;;;6.70;2.63;;;;;;;22.11;83.85;158075.88;4946232;28;20063;-83
2022/06/18 07:00:48;;;;;;;9.02;2.83;;;;;;;22.25;85.41;158110.78;4934281;29;20130;-80
2022/06/18 07:03:16;;;;;;;6.78;3.00;;;;;;;22.31;88.83;158127.59;4937550;28;20358;-80
2022/06/18 07:05:43;;;;;;;3.83;2.65;;;;;;;22.41;86.72;158150.84;4935993;29;20042;-80
2022/06/18 07:08:09;;;;;;;6.00;2.60;;;;;;;22.44;87.12;158158.59;4910849;28;20031;-82
2022/06/18 07:10:35;;;;;;;7.72;2.75;;;;;;;22.50;84.37;158174.09;4953555;28;20038;-80
2022/06/18 07:13:01;;;;;;;6.97;3.25;;;;;;;22.60;83.04;158198.63;4947362;28;20038;-82
2022/06/18 07:15:26;;;;;;;4.30;2.45;;;;;;;22.73;84.26;158232.22;4939596;29;20048;-82
2022/06/18 07:17:52;;;;;;;4.00;2.35;;;;;;;22.80;86.31;158249.03;4914154;29;20740;-82
2022/06/18 07:20:19;;;;;;;5.90;2.55;;;;;;;22.96;83.91;158290.34;4918037;29;20059;-81
2022/06/18 07:22:45;;;;;;;6.28;2.40;;;;;;;22.99;83.74;158298.09;4942506;29;20435;-80
2022/06/18 07:25:12;;;;;;;9.35;3.22;;;;;;;23.24;77.94;158360.19;4930957;28;20046;-81
2022/06/18 07:27:38;;;;;;;8.38;2.55;;;;;;;23.37;81.04;158393.78;4921803;29;20035;-80
2022/06/18 07:30:05;;;;;;;7.30;3.25;;;;;;;23.30;77.18;158375.66;4920534;29;20086;-78
2022/06/18 07:32:31;;;;;;;10.88;3.15;;;;;;;23.50;76.06;158427.38;4929673;29;20032;-81
2022/06/18 07:34:57;;;;;;;6.25;3.10;;;;;;;23.59;76.26;158449.38;4915352;29;20043;-80
2022/06/18 07:37:23;;;;;;;9.30;3.03;;;;;;;23.76;81.16;158490.75;4926982;28;20105;-80
2022/06/18 07:39:49;;;;;;;6.85;3.60;;;;;;;23.70;75.05;158477.78;4923305;28;20101;-81
2022/06/18 07:42:17;;;;;;;8.25;3.35;;;;;;;23.84;77.92;158512.72;4934003;28;20047;-80
2022/06/18 07:44:43;;;;;;;6.88;3.47;;;;;;;23.98;77.14;158547.66;4939238;29;20415;-79
2022/06/18 07:47:13;;;;;;;7.28;3.13;;;;;;;24.10;76.41;158577.38;4914183;29;20042;-80
2022/06/18 07:49:38;;;;;;;7.43;3.63;;;;;;;24.18;76.75;158598.06;4959991;28;20038;-79
2022/06/18 07:52:04;;;;;;;6.15;3.00;;;;;;;24.18;76.47;158598.06;4949396;28;20130;-78
2022/06/18 07:54:30;;;;;;;10.55;3.67;;;;;;;24.24;72.11;158613.59;4932758;28;20030;-81
2022/06/18 07:56:55;;;;;;;6.53;3.40;;;;;;;24.40;77.58;158652.38;4947016;28;20146;-79
2022/06/18 07:59:23;;;;;;;7.32;3.38;;;;;;;24.59;77.62;158700.25;4948455;28;20047;-78
2022/06/18 08:01:49;;;;;;;8.38;3.63;;;;;;;24.70;78.31;158727.44;4939106;28;20636;-79
2022/06/18 08:04:14;;;;;;;6.25;3.78;;;;;;;24.62;71.75;158709.31;4921072;29;20122;-80
2022/06/18 08:06:40;;;;;;;9.20;4.20;;;;;;;24.60;71.13;158704.16;4914545;29;20044;-82
2022/06/18 08:09:06;;;;;;;6.35;3.25;;;;;;;24.73;74.38;158735.16;4918785;29;20046;-80
2022/06/18 08:11:32;;;;;;;9.13;3.42;;;;;;;24.85;77.06;158766.22;4931272;29;20035;-79
2022/06/18 08:13:58;;;;;;;8.23;3.45;;;;;;;25.00;73.79;158803.75;4931312;28;20091;-80
2022/06/18 08:16:24;;;;;;;6.88;3.17;;;;;;;25.08;74.57;158824.41;4930266;28;20047;-81
2022/06/18 08:18:50;;;;;;;9.02;3.40;;;;;;;25.31;75.51;158881.38;4938564;28;20114;-82
2022/06/18 08:21:30;;;;;;;11.00;3.75;;;;;;;25.38;71.88;158899.50;4916303;29;20041;-82
2022/06/18 08:24:05;;;;;;;6.28;3.38;;;;;;;25.38;68.90;158899.50;4945290;28;20497;-82
2022/06/18 08:26:33;;;;;;;7.05;2.90;;;;;;;25.49;70.54;158927.94;4950760;28;20035;-82
2022/06/18 08:29:01;;;;;;;7.07;3.28;;;;;;;25.65;71.54;158968.03;4937906;29;20569;-81
2022/06/18 08:31:27;;;;;;;11.10;3.67;;;;;;;25.61;69.24;158957.69;4956774;28;20662;-81
2022/06/18 08:33:53;;;;;;;8.57;2.90;;;;;;;25.73;69.62;158988.78;4944176;29;20039;-76
2022/06/18 08:36:19;;;;;;;14.23;4.25;;;;;;;25.87;68.04;159023.69;4964645;28;20090;-78
2022/06/18 08:38:48;;;;;;;9.05;3.70;;;;;;;25.99;67.71;159053.47;4941051;29;20071;-80
2022/06/18 08:41:38;;;;;;;10.68;3.88;;;;;;;26.13;67.44;159088.44;4924905;28;20110;-81
2022/06/18 08:44:19;;;;;;;6.90;2.88;;;;;;;26.17;68.26;159100.06;4933313;28;20109;-79
2022/06/18 08:47:21;;;;;;;6.57;2.70;;;;;;;26.21;69.86;159110.41;4918220;29;20039;-81
2022/06/18 08:50:01;;;;;;;11.25;2.88;;;;;;;26.30;70.09;159131.16;4941493;29;20422;-81
2022/06/18 08:52:52;;;;;;;11.02;3.05;;;;;;;26.50;69.66;159181.59;4958291;28;20039;-80
2022/06/18 08:55:41;;;;;;;9.75;3.08;;;;;;;26.68;70.51;159228.25;4923660;28;20083;-83
2022/06/18 08:58:20;;;;;;;7.50;3.60;;;;;;;26.57;66.84;159199.72;4965585;28;20027;-80
2022/06/18 09:01:11;;;;;;;8.88;3.00;;;;;;;26.69;66.29;159230.88;4966042;28;20046;-81
2022/06/18 09:04:00;;;;;;;6.43;2.88;;;;;;;26.92;67.33;159287.81;4921654;29;20047;-79
2022/06/18 09:06:54;;;;;;;8.82;3.80;;;;;;;26.92;64.27;159287.81;4919441;29;20070;-80
2022/06/18 09:09:38;;;;;;;8.25;3.70;;;;;;;26.95;66.46;159296.84;4959980;28;20039;-79
2022/06/18 09:12:14;;;;;;;12.73;3.75;;;;;;;26.89;67.52;159281.31;4925488;29;20047;-81
2022/06/18 09:15:01;;;;;;;9.40;2.95;;;;;;;27.00;72.60;159309.81;4927167;29;20557;-79
2022/06/18 09:17:41;;;;;;;8.35;2.97;;;;;;;27.18;66.27;159355.13;4913606;29;20461;-81
2022/06/18 09:20:09;;;;;;;9.68;4.03;;;;;;;27.16;63.65;159348.63;4932858;28;20047;-80
2022/06/18 09:22:42;;;;;;;8.65;4.15;;;;;;;26.99;64.31;159307.25;4946599;28;20043;-81
2022/06/18 09:25:13;;;;;;;11.82;4.60;;;;;;;26.98;64.69;159303.34;4939843;28;20067;-82
2022/06/18 09:28:03;;;;;;;13.90;4.50;;;;;;;27.12;65.62;159339.56;4941747;28;20822;-83
2022/06/18 09:30:32;;;;;;;10.68;4.10;;;;;;;27.19;65.02;159357.69;4946348;28;20344;-83
2022/06/18 09:33:04;;;;;;;11.88;3.80;;;;;;;27.22;66.56;159362.88;4916168;29;20142;-81
2022/06/18 09:35:35;;;;;;;7.90;3.80;;;;;;;27.29;65.33;159382.34;4943737;28;20036;-81
2022/06/18 09:38:07;;;;;;;10.90;4.10;;;;;;;27.33;64.45;159391.41;4930513;29;20059;-80
2022/06/18 09:40:40;;;;;;;9.00;3.60;;;;;;;27.27;62.17;159375.88;4929857;28;20118;-80
2022/06/18 09:43:18;;;;;;;9.18;3.85;;;;;;;27.31;65.54;159387.56;4949340;28;20050;-82
2022/06/18 09:45:50;;;;;;;11.60;4.15;;;;;;;27.28;62.87;159379.78;4946489;29;20087;-81
2022/06/18 09:48:16;;;;;;;6.43;3.08;;;;;;;27.39;66.37;159406.97;4933245;28;20545;-81
2022/06/18 09:50:47;;;;;;;9.55;3.60;;;;;;;27.51;64.21;159438.03;4941259;28;20038;-80
2022/06/18 09:53:22;;;;;;;11.30;4.20;;;;;;;27.66;63.61;159474.31;4932402;28;20043;-81
2022/06/18 09:55:52;;;;;;;12.38;4.63;;;;;;;27.48;62.58;159430.28;4942072;28;20051;-80
2022/06/18 09:58:26;;;;;;;12.95;4.07;;;;;;;27.48;63.74;159430.28;4937201;28;20137;-80
2022/06/18 10:00:55;;;;;;;10.65;3.30;;;;;;;27.75;69.27;159498.91;4942633;29;20050;-81
2022/06/18 10:09:04;;;;;;;9.10;3.92;;;;;;;27.74;63.38;159496.28;4944874;29;20039;-79
2022/06/18 10:11:30;;;;;;;13.27;4.47;;;;;;;27.62;64.65;159463.97;4950736;28;20039;-80
2022/06/18 10:14:10;;;;;;;8.10;3.30;;;;;;;27.79;65.12;159507.97;4936775;28;20535;-80
2022/06/18 10:16:47;;;;;;;12.82;3.38;;;;;;;27.82;63.45;159515.75;4945500;28;20036;-81
2022/06/18 10:19:25;;;;;;;9.77;3.33;;;;;;;27.76;63.30;159501.50;4951771;28;20044;-80
2022/06/18 10:22:14;;;;;;;8.70;3.60;;;;;;;27.90;62.79;159535.22;4942189;28;20035;-81
2022/06/18 10:25:13;;;;;;;9.95;4.13;;;;;;;27.76;60.47;159500.19;4934277;29;20131;-80
2022/06/18 10:28:03;;;;;;;9.38;3.70;;;;;;;27.88;64.36;159530.00;4922812;28;20113;-80
2022/06/18 10:30:51;;;;;;;10.45;3.80;;;;;;;27.50;63.37;159435.47;4919582;28;20042;-81
2022/06/18 10:33:41;;;;;;;8.65;3.75;;;;;;;27.66;62.61;159474.31;4932265;28;20030;-82
2022/06/18 10:36:22;;;;;;;8.07;3.40;;;;;;;27.67;61.66;159476.88;4936204;28;20127;-81
2022/06/18 10:39:29;;;;;;;9.02;3.25;;;;;;;27.62;58.73;159463.97;4930322;29;20043;-82
2022/06/18 10:42:19;;;;;;;9.02;2.70;;;;;;;27.44;64.26;159419.88;4933442;29;20039;-80
2022/06/18 10:44:51;;;;;;;12.25;2.72;;;;;;;27.33;58.86;159392.72;4944408;29;20121;-83
2022/06/18 10:47:18;;;;;;;9.98;2.60;;;;;;;27.49;60.65;159432.84;4947476;29;20049;-83
2022/06/18 10:49:46;;;;;;;4.13;1.90;;;;;;;27.60;57.39;159458.78;4921682;29;20039;-81
2022/06/18 10:52:18;;;;;;;5.18;1.98;;;;;;;27.76;58.34;159500.19;4942390;28;20061;-81
2022/06/18 10:54:45;;;;;;;6.07;1.98;;;;;;;27.85;56.80;159522.22;4932037;28;20035;-80
2022/06/18 10:57:25;;;;;;;6.10;1.98;;;;;;;27.71;57.46;159487.28;4933421;28;20038;-81
2022/06/18 10:59:50;;;;;;;3.80;2.00;;;;;;;27.70;60.38;159484.66;4937852;29;20090;-83
2022/06/18 11:02:27;;;;;;;7.00;2.05;;;;;;;27.70;57.26;159485.94;4932391;29;20755;-82
2022/06/18 11:05:00;;;;;;;6.43;2.10;;;;;;;27.70;62.02;159484.66;4937343;29;20043;-84
2022/06/18 11:07:28;;;;;;;6.30;2.08;;;;;;;27.77;57.36;159504.06;4960033;28;20454;-82
2022/06/18 11:10:01;;;;;;;7.78;2.00;;;;;;;27.88;58.41;159531.28;4964029;28;20501;-85
2022/06/18 11:12:34;;;;;;;10.25;2.35;;;;;;;27.98;60.19;159555.94;4947430;28;20134;-81
2022/06/18 11:15:20;;;;;;;4.82;1.98;;;;;;;28.18;58.52;159606.47;4921459;28;20494;-80
2022/06/18 11:17:46;;;;;;;8.98;1.70;;;;;;;27.91;59.29;159537.78;4950714;28;20130;-82
2022/06/18 11:20:14;;;;;;;8.82;2.10;;;;;;;27.82;60.31;159515.75;4943286;28;20039;-82
2022/06/18 11:22:41;;;;;;;6.40;1.90;;;;;;;27.75;57.71;159497.63;4946670;28;20158;-79
2022/06/18 11:25:49;;;;;;;6.03;1.60;;;;;;;28.01;58.17;159563.72;4939634;28;20047;-80
2022/06/18 11:28:28;;;;;;;6.65;1.92;;;;;;;27.91;59.68;159537.78;4901032;29;20052;-80
2022/06/18 11:30:55;;;;;;;4.20;1.83;;;;;;;27.73;56.38;159493.72;4945408;28;20130;-82
2022/06/18 11:33:40;;;;;;;4.20;1.40;;;;;;;27.61;57.11;159462.63;4911759;29;20516;-85
2022/06/18 11:36:15;;;;;;;4.53;1.38;;;;;;;27.80;57.64;159509.25;4925977;29;20075;-80
2022/06/18 11:38:51;;;;;;;6.88;1.60;;;;;;;27.81;60.92;159511.88;4942857;28;20026;-79
2022/06/18 11:41:26;;;;;;;7.63;1.60;;;;;;;27.90;59.89;159535.22;4963161;28;20054;-80
2022/06/18 11:43:57;;;;;;;6.88;2.40;;;;;;;28.00;57.46;159559.84;4946503;28;20417;-79
2022/06/18 11:46:33;;;;;;;6.60;1.92;;;;;;;27.86;60.74;159524.78;4930476;28;20479;-80
2022/06/18 11:49:20;;;;;;;6.60;2.20;;;;;;;28.22;59.43;159616.81;4915768;29;20035;-80
2022/06/18 11:52:09;;;;;;;4.07;1.63;;;;;;;27.86;59.56;159526.09;4927889;29;20047;-80
2022/06/18 11:54:40;;;;;;;4.65;1.75;;;;;;;28.22;63.99;159616.81;4932484;28;20112;-78
2022/06/18 11:57:29;;;;;;;9.50;2.15;;;;;;;28.24;61.10;159622.00;4946111;28;20073;-78
2022/06/18 12:00:17;;;;;;;5.18;1.88;;;;;;;28.46;60.05;159677.72;4925958;29;20031;-75